sensor_id;sensor_type;location;lat;lon;timestamp;P1;durP1;ratioP1;P2;durP2;ratioP2
37781;SDS011;23621;50.878;4.584;2024-01-25T00:00:58;41.40;;;9.02;;
37781;SDS011;23621;50.878;4.584;2024-01-25T00:02:59;38.53;;;10.23;;
37781;SDS011;23621;50.878;4.584;2024-01-25T00:05:00;40.30;;;9.98;;
37781;SDS011;23621;50.878;4.584;2024-01-25T00:07:00;39.40;;;9.93;;
37781;SDS011;23621;50.878;4.584;2024-01-25T00:09:01;42.00;;;9.45;;
37781;SDS011;23621;50.878;4.584;2024-01-25T00:11:02;43.08;;;10.23;;
37781;SDS011;23621;50.878;4.584;2024-01-25T00:13:04;39.92;;;9.07;;
37781;SDS011;23621;50.878;4.584;2024-01-25T00:15:05;43.63;;;9.80;;
37781;SDS011;23621;50.878;4.584;2024-01-25T00:17:05;42.53;;;9.93;;
37781;SDS011;23621;50.878;4.584;2024-01-25T00:19:06;42.30;;;10.30;;
37781;SDS011;23621;50.878;4.584;2024-01-25T00:21:07;44.65;;;9.68;;
37781;SDS011;23621;50.878;4.584;2024-01-25T00:23:07;39.75;;;9.30;;
37781;SDS011;23621;50.878;4.584;2024-01-25T00:25:08;45.92;;;11.30;;
37781;SDS011;23621;50.878;4.584;2024-01-25T00:27:08;44.15;;;10.43;;
37781;SDS011;23621;50.878;4.584;2024-01-25T00:29:09;42.53;;;9.65;;
37781;SDS011;23621;50.878;4.584;2024-01-25T00:31:10;40.17;;;9.00;;
37781;SDS011;23621;50.878;4.584;2024-01-25T00:33:11;38.50;;;9.43;;
37781;SDS011;23621;50.878;4.584;2024-01-25T00:35:12;39.45;;;10.05;;
37781;SDS011;23621;50.878;4.584;2024-01-25T00:37:13;42.13;;;9.68;;
37781;SDS011;23621;50.878;4.584;2024-01-25T00:39:14;39.42;;;9.40;;
37781;SDS011;23621;50.878;4.584;2024-01-25T00:41:18;46.63;;;9.95;;
37781;SDS011;23621;50.878;4.584;2024-01-25T00:43:19;39.55;;;10.82;;
37781;SDS011;23621;50.878;4.584;2024-01-25T00:45:20;43.85;;;10.10;;
37781;SDS011;23621;50.878;4.584;2024-01-25T00:47:22;46.28;;;9.90;;
37781;SDS011;23621;50.878;4.584;2024-01-25T00:49:23;42.85;;;10.27;;
37781;SDS011;23621;50.878;4.584;2024-01-25T00:51:24;44.78;;;10.18;;
37781;SDS011;23621;50.878;4.584;2024-01-25T00:53:25;38.88;;;9.00;;
37781;SDS011;23621;50.878;4.584;2024-01-25T00:55:26;45.00;;;9.77;;
37781;SDS011;23621;50.878;4.584;2024-01-25T00:57:27;43.30;;;9.90;;
37781;SDS011;23621;50.878;4.584;2024-01-25T00:59:27;40.10;;;9.63;;
37781;SDS011;23621;50.878;4.584;2024-01-25T01:01:28;40.83;;;10.05;;
37781;SDS011;23621;50.878;4.584;2024-01-25T01:03:29;44.40;;;8.82;;
37781;SDS011;23621;50.878;4.584;2024-01-25T01:05:30;41.28;;;9.38;;
37781;SDS011;23621;50.878;4.584;2024-01-25T01:07:31;51.50;;;10.70;;
37781;SDS011;23621;50.878;4.584;2024-01-25T01:09:32;42.28;;;10.00;;
37781;SDS011;23621;50.878;4.584;2024-01-25T01:11:33;41.25;;;9.50;;
37781;SDS011;23621;50.878;4.584;2024-01-25T01:13:34;36.42;;;9.45;;
37781;SDS011;23621;50.878;4.584;2024-01-25T01:15:34;36.75;;;9.38;;
37781;SDS011;23621;50.878;4.584;2024-01-25T01:17:35;48.25;;;10.40;;
37781;SDS011;23621;50.878;4.584;2024-01-25T01:19:36;45.10;;;10.40;;
37781;SDS011;23621;50.878;4.584;2024-01-25T01:21:36;50.67;;;11.00;;
37781;SDS011;23621;50.878;4.584;2024-01-25T01:23:38;46.28;;;9.85;;
37781;SDS011;23621;50.878;4.584;2024-01-25T01:25:39;40.85;;;9.73;;
37781;SDS011;23621;50.878;4.584;2024-01-25T01:27:39;41.00;;;8.95;;
37781;SDS011;23621;50.878;4.584;2024-01-25T01:29:40;47.70;;;9.70;;
37781;SDS011;23621;50.878;4.584;2024-01-25T01:31:41;39.63;;;8.55;;
37781;SDS011;23621;50.878;4.584;2024-01-25T01:33:41;41.63;;;9.52;;
37781;SDS011;23621;50.878;4.584;2024-01-25T01:35:42;41.40;;;9.10;;
37781;SDS011;23621;50.878;4.584;2024-01-25T01:37:43;36.70;;;9.38;;
37781;SDS011;23621;50.878;4.584;2024-01-25T01:39:43;33.22;;;8.82;;
37781;SDS011;23621;50.878;4.584;2024-01-25T01:41:47;45.17;;;9.93;;
37781;SDS011;23621;50.878;4.584;2024-01-25T01:43:51;38.33;;;9.23;;
37781;SDS011;23621;50.878;4.584;2024-01-25T01:45:54;39.05;;;9.32;;
37781;SDS011;23621;50.878;4.584;2024-01-25T01:48:01;48.10;;;9.77;;
37781;SDS011;23621;50.878;4.584;2024-01-25T01:50:02;38.75;;;9.45;;
37781;SDS011;23621;50.878;4.584;2024-01-25T01:52:04;39.50;;;9.52;;
37781;SDS011;23621;50.878;4.584;2024-01-25T01:54:07;42.72;;;9.77;;
37781;SDS011;23621;50.878;4.584;2024-01-25T01:56:08;40.60;;;9.45;;
37781;SDS011;23621;50.878;4.584;2024-01-25T01:58:10;45.03;;;9.60;;
37781;SDS011;23621;50.878;4.584;2024-01-25T02:00:10;36.75;;;8.93;;
37781;SDS011;23621;50.878;4.584;2024-01-25T02:02:14;43.70;;;9.13;;
37781;SDS011;23621;50.878;4.584;2024-01-25T02:04:15;34.13;;;9.02;;
37781;SDS011;23621;50.878;4.584;2024-01-25T02:06:15;35.67;;;8.80;;
37781;SDS011;23621;50.878;4.584;2024-01-25T02:08:16;35.28;;;8.50;;
37781;SDS011;23621;50.878;4.584;2024-01-25T02:10:17;36.92;;;8.45;;
37781;SDS011;23621;50.878;4.584;2024-01-25T02:12:17;37.10;;;9.60;;
37781;SDS011;23621;50.878;4.584;2024-01-25T02:14:18;41.58;;;8.65;;
37781;SDS011;23621;50.878;4.584;2024-01-25T02:16:19;37.97;;;9.15;;
37781;SDS011;23621;50.878;4.584;2024-01-25T02:18:20;38.28;;;9.25;;
37781;SDS011;23621;50.878;4.584;2024-01-25T02:20:20;37.63;;;8.88;;
37781;SDS011;23621;50.878;4.584;2024-01-25T02:22:21;37.35;;;9.57;;
37781;SDS011;23621;50.878;4.584;2024-01-25T02:24:22;41.13;;;9.15;;
37781;SDS011;23621;50.878;4.584;2024-01-25T02:26:22;39.50;;;9.23;;
37781;SDS011;23621;50.878;4.584;2024-01-25T02:28:23;42.75;;;9.25;;
37781;SDS011;23621;50.878;4.584;2024-01-25T02:30:23;43.90;;;9.43;;
37781;SDS011;23621;50.878;4.584;2024-01-25T02:32:24;36.65;;;9.13;;
37781;SDS011;23621;50.878;4.584;2024-01-25T02:34:25;34.13;;;8.07;;
37781;SDS011;23621;50.878;4.584;2024-01-25T02:36:25;37.75;;;9.13;;
37781;SDS011;23621;50.878;4.584;2024-01-25T02:38:26;42.67;;;9.23;;
37781;SDS011;23621;50.878;4.584;2024-01-25T02:40:27;37.55;;;9.35;;
37781;SDS011;23621;50.878;4.584;2024-01-25T02:42:27;43.75;;;9.43;;
37781;SDS011;23621;50.878;4.584;2024-01-25T02:44:28;31.90;;;8.93;;
37781;SDS011;23621;50.878;4.584;2024-01-25T02:46:29;32.05;;;8.70;;
37781;SDS011;23621;50.878;4.584;2024-01-25T02:48:30;40.05;;;9.15;;
37781;SDS011;23621;50.878;4.584;2024-01-25T02:50:31;40.25;;;10.10;;
37781;SDS011;23621;50.878;4.584;2024-01-25T02:52:32;38.20;;;9.68;;
37781;SDS011;23621;50.878;4.584;2024-01-25T02:54:36;38.63;;;8.25;;
37781;SDS011;23621;50.878;4.584;2024-01-25T02:56:36;38.53;;;9.45;;
37781;SDS011;23621;50.878;4.584;2024-01-25T02:58:37;39.22;;;8.93;;
37781;SDS011;23621;50.878;4.584;2024-01-25T03:00:38;37.10;;;9.77;;
37781;SDS011;23621;50.878;4.584;2024-01-25T03:02:38;39.33;;;9.88;;
37781;SDS011;23621;50.878;4.584;2024-01-25T03:04:39;38.90;;;9.18;;
37781;SDS011;23621;50.878;4.584;2024-01-25T03:06:40;31.30;;;8.35;;
37781;SDS011;23621;50.878;4.584;2024-01-25T03:08:40;39.45;;;8.77;;
37781;SDS011;23621;50.878;4.584;2024-01-25T03:10:41;36.40;;;8.82;;
37781;SDS011;23621;50.878;4.584;2024-01-25T03:12:42;37.30;;;9.02;;
37781;SDS011;23621;50.878;4.584;2024-01-25T03:14:42;38.83;;;9.90;;
37781;SDS011;23621;50.878;4.584;2024-01-25T03:16:43;38.85;;;9.00;;
37781;SDS011;23621;50.878;4.584;2024-01-25T03:18:44;37.08;;;9.10;;
37781;SDS011;23621;50.878;4.584;2024-01-25T03:20:45;34.85;;;8.32;;
37781;SDS011;23621;50.878;4.584;2024-01-25T03:22:45;32.78;;;8.40;;
37781;SDS011;23621;50.878;4.584;2024-01-25T03:24:46;38.00;;;9.70;;
37781;SDS011;23621;50.878;4.584;2024-01-25T03:26:47;33.13;;;9.02;;
37781;SDS011;23621;50.878;4.584;2024-01-25T03:28:48;42.70;;;8.82;;
37781;SDS011;23621;50.878;4.584;2024-01-25T03:30:49;35.25;;;10.32;;
37781;SDS011;23621;50.878;4.584;2024-01-25T03:32:50;34.75;;;8.27;;
37781;SDS011;23621;50.878;4.584;2024-01-25T03:34:51;41.63;;;9.43;;
37781;SDS011;23621;50.878;4.584;2024-01-25T03:36:51;36.83;;;8.55;;
37781;SDS011;23621;50.878;4.584;2024-01-25T03:38:53;37.75;;;9.68;;
37781;SDS011;23621;50.878;4.584;2024-01-25T03:40:54;32.85;;;8.63;;
37781;SDS011;23621;50.878;4.584;2024-01-25T03:42:56;34.88;;;8.80;;
37781;SDS011;23621;50.878;4.584;2024-01-25T03:44:57;41.95;;;9.52;;
37781;SDS011;23621;50.878;4.584;2024-01-25T03:46:59;29.13;;;7.75;;
37781;SDS011;23621;50.878;4.584;2024-01-25T03:48:59;39.38;;;8.48;;
37781;SDS011;23621;50.878;4.584;2024-01-25T03:51:00;29.63;;;8.35;;
37781;SDS011;23621;50.878;4.584;2024-01-25T03:53:01;30.98;;;7.93;;
37781;SDS011;23621;50.878;4.584;2024-01-25T03:55:01;31.45;;;7.82;;
37781;SDS011;23621;50.878;4.584;2024-01-25T03:57:03;36.33;;;9.02;;
37781;SDS011;23621;50.878;4.584;2024-01-25T03:59:04;30.20;;;7.45;;
37781;SDS011;23621;50.878;4.584;2024-01-25T04:01:04;34.40;;;8.50;;
37781;SDS011;23621;50.878;4.584;2024-01-25T04:03:05;33.20;;;8.38;;
37781;SDS011;23621;50.878;4.584;2024-01-25T04:05:06;28.08;;;7.38;;
37781;SDS011;23621;50.878;4.584;2024-01-25T04:07:07;35.15;;;8.10;;
37781;SDS011;23621;50.878;4.584;2024-01-25T04:09:08;31.45;;;8.55;;
37781;SDS011;23621;50.878;4.584;2024-01-25T04:11:09;32.13;;;8.32;;
37781;SDS011;23621;50.878;4.584;2024-01-25T04:13:10;33.65;;;7.97;;
37781;SDS011;23621;50.878;4.584;2024-01-25T04:15:10;29.63;;;7.88;;
37781;SDS011;23621;50.878;4.584;2024-01-25T04:17:11;29.92;;;8.10;;
37781;SDS011;23621;50.878;4.584;2024-01-25T04:19:12;41.08;;;8.63;;
37781;SDS011;23621;50.878;4.584;2024-01-25T04:21:12;37.22;;;9.15;;
37781;SDS011;23621;50.878;4.584;2024-01-25T04:23:13;37.35;;;8.63;;
37781;SDS011;23621;50.878;4.584;2024-01-25T04:25:15;34.28;;;8.27;;
37781;SDS011;23621;50.878;4.584;2024-01-25T04:27:16;35.55;;;8.48;;
37781;SDS011;23621;50.878;4.584;2024-01-25T04:29:16;36.88;;;8.23;;
37781;SDS011;23621;50.878;4.584;2024-01-25T04:31:17;36.08;;;8.88;;
37781;SDS011;23621;50.878;4.584;2024-01-25T04:33:19;32.80;;;7.10;;
37781;SDS011;23621;50.878;4.584;2024-01-25T04:35:20;31.08;;;7.00;;
37781;SDS011;23621;50.878;4.584;2024-01-25T04:37:21;30.10;;;8.18;;
37781;SDS011;23621;50.878;4.584;2024-01-25T04:39:21;34.00;;;8.45;;
37781;SDS011;23621;50.878;4.584;2024-01-25T04:41:22;34.90;;;7.57;;
37781;SDS011;23621;50.878;4.584;2024-01-25T04:43:23;30.67;;;7.72;;
37781;SDS011;23621;50.878;4.584;2024-01-25T04:45:24;31.08;;;8.00;;
37781;SDS011;23621;50.878;4.584;2024-01-25T04:47:24;33.90;;;8.27;;
37781;SDS011;23621;50.878;4.584;2024-01-25T04:49:25;31.73;;;8.88;;
37781;SDS011;23621;50.878;4.584;2024-01-25T04:51:26;32.72;;;7.38;;
37781;SDS011;23621;50.878;4.584;2024-01-25T04:53:27;32.05;;;8.50;;
37781;SDS011;23621;50.878;4.584;2024-01-25T04:55:28;37.55;;;9.63;;
37781;SDS011;23621;50.878;4.584;2024-01-25T04:57:28;34.80;;;8.68;;
37781;SDS011;23621;50.878;4.584;2024-01-25T04:59:29;37.83;;;8.38;;
37781;SDS011;23621;50.878;4.584;2024-01-25T05:01:29;29.27;;;7.13;;
37781;SDS011;23621;50.878;4.584;2024-01-25T05:03:30;23.80;;;6.35;;
37781;SDS011;23621;50.878;4.584;2024-01-25T05:05:31;36.63;;;8.65;;
37781;SDS011;23621;50.878;4.584;2024-01-25T05:07:31;33.58;;;8.30;;
37781;SDS011;23621;50.878;4.584;2024-01-25T05:09:32;23.25;;;6.60;;
37781;SDS011;23621;50.878;4.584;2024-01-25T05:11:33;34.80;;;8.30;;
37781;SDS011;23621;50.878;4.584;2024-01-25T05:13:33;28.05;;;8.20;;
37781;SDS011;23621;50.878;4.584;2024-01-25T05:15:34;33.10;;;8.55;;
37781;SDS011;23621;50.878;4.584;2024-01-25T05:17:35;32.30;;;8.02;;
37781;SDS011;23621;50.878;4.584;2024-01-25T05:19:35;40.00;;;8.63;;
37781;SDS011;23621;50.878;4.584;2024-01-25T05:21:36;27.20;;;7.65;;
37781;SDS011;23621;50.878;4.584;2024-01-25T05:23:37;24.27;;;7.18;;
37781;SDS011;23621;50.878;4.584;2024-01-25T05:25:37;33.97;;;7.88;;
37781;SDS011;23621;50.878;4.584;2024-01-25T05:27:38;26.98;;;7.20;;
37781;SDS011;23621;50.878;4.584;2024-01-25T05:29:39;27.00;;;7.03;;
37781;SDS011;23621;50.878;4.584;2024-01-25T05:31:39;28.13;;;7.93;;
37781;SDS011;23621;50.878;4.584;2024-01-25T05:33:40;32.45;;;7.93;;
37781;SDS011;23621;50.878;4.584;2024-01-25T05:35:41;36.28;;;8.45;;
37781;SDS011;23621;50.878;4.584;2024-01-25T05:37:42;30.45;;;8.27;;
37781;SDS011;23621;50.878;4.584;2024-01-25T05:39:43;33.25;;;9.02;;
37781;SDS011;23621;50.878;4.584;2024-01-25T05:41:43;35.40;;;8.65;;
37781;SDS011;23621;50.878;4.584;2024-01-25T05:43:47;39.17;;;8.82;;
37781;SDS011;23621;50.878;4.584;2024-01-25T05:45:47;32.90;;;8.75;;
37781;SDS011;23621;50.878;4.584;2024-01-25T05:47:49;37.95;;;8.85;;
37781;SDS011;23621;50.878;4.584;2024-01-25T05:49:49;26.38;;;7.40;;
37781;SDS011;23621;50.878;4.584;2024-01-25T05:51:50;33.60;;;8.40;;
37781;SDS011;23621;50.878;4.584;2024-01-25T05:53:51;27.13;;;7.55;;
37781;SDS011;23621;50.878;4.584;2024-01-25T05:55:51;33.42;;;8.55;;
37781;SDS011;23621;50.878;4.584;2024-01-25T05:57:52;29.98;;;8.25;;
37781;SDS011;23621;50.878;4.584;2024-01-25T05:59:53;33.72;;;7.55;;
37781;SDS011;23621;50.878;4.584;2024-01-25T06:01:53;32.83;;;8.13;;
37781;SDS011;23621;50.878;4.584;2024-01-25T06:03:54;34.35;;;7.88;;
37781;SDS011;23621;50.878;4.584;2024-01-25T06:05:55;25.35;;;7.18;;
37781;SDS011;23621;50.878;4.584;2024-01-25T06:07:55;28.48;;;7.70;;
37781;SDS011;23621;50.878;4.584;2024-01-25T06:09:56;37.50;;;8.80;;
37781;SDS011;23621;50.878;4.584;2024-01-25T06:11:57;41.25;;;8.52;;
37781;SDS011;23621;50.878;4.584;2024-01-25T06:13:58;32.38;;;7.60;;
37781;SDS011;23621;50.878;4.584;2024-01-25T06:15:58;31.10;;;7.43;;
37781;SDS011;23621;50.878;4.584;2024-01-25T06:17:59;34.05;;;8.07;;
37781;SDS011;23621;50.878;4.584;2024-01-25T06:20:00;38.42;;;7.93;;
37781;SDS011;23621;50.878;4.584;2024-01-25T06:22:01;36.35;;;9.20;;
37781;SDS011;23621;50.878;4.584;2024-01-25T06:24:03;35.13;;;8.77;;
37781;SDS011;23621;50.878;4.584;2024-01-25T06:26:07;35.53;;;8.88;;
37781;SDS011;23621;50.878;4.584;2024-01-25T06:28:07;32.97;;;8.27;;
37781;SDS011;23621;50.878;4.584;2024-01-25T06:30:08;38.33;;;8.40;;
37781;SDS011;23621;50.878;4.584;2024-01-25T06:32:09;39.35;;;9.75;;
37781;SDS011;23621;50.878;4.584;2024-01-25T06:34:10;34.03;;;8.48;;
37781;SDS011;23621;50.878;4.584;2024-01-25T06:36:11;36.47;;;9.55;;
37781;SDS011;23621;50.878;4.584;2024-01-25T06:38:14;42.88;;;8.88;;
37781;SDS011;23621;50.878;4.584;2024-01-25T06:40:14;43.53;;;9.13;;
37781;SDS011;23621;50.878;4.584;2024-01-25T06:42:15;36.97;;;8.88;;
37781;SDS011;23621;50.878;4.584;2024-01-25T06:44:16;36.15;;;9.38;;
37781;SDS011;23621;50.878;4.584;2024-01-25T06:46:17;35.90;;;8.50;;
37781;SDS011;23621;50.878;4.584;2024-01-25T06:48:18;32.40;;;8.63;;
37781;SDS011;23621;50.878;4.584;2024-01-25T06:50:18;27.35;;;8.13;;
37781;SDS011;23621;50.878;4.584;2024-01-25T06:52:19;35.63;;;9.43;;
37781;SDS011;23621;50.878;4.584;2024-01-25T06:54:19;30.13;;;8.32;;
37781;SDS011;23621;50.878;4.584;2024-01-25T06:56:20;31.25;;;9.60;;
37781;SDS011;23621;50.878;4.584;2024-01-25T06:58:21;38.42;;;8.95;;
37781;SDS011;23621;50.878;4.584;2024-01-25T07:00:21;33.17;;;8.40;;
37781;SDS011;23621;50.878;4.584;2024-01-25T07:02:22;35.42;;;8.82;;
37781;SDS011;23621;50.878;4.584;2024-01-25T07:04:23;30.98;;;8.85;;
37781;SDS011;23621;50.878;4.584;2024-01-25T07:06:24;34.58;;;9.25;;
37781;SDS011;23621;50.878;4.584;2024-01-25T07:08:26;29.48;;;7.63;;
37781;SDS011;23621;50.878;4.584;2024-01-25T07:10:27;31.42;;;8.50;;
37781;SDS011;23621;50.878;4.584;2024-01-25T07:12:28;36.90;;;9.20;;
37781;SDS011;23621;50.878;4.584;2024-01-25T07:14:29;34.22;;;8.80;;
37781;SDS011;23621;50.878;4.584;2024-01-25T07:16:30;27.75;;;8.20;;
37781;SDS011;23621;50.878;4.584;2024-01-25T07:18:30;36.88;;;8.77;;
37781;SDS011;23621;50.878;4.584;2024-01-25T07:20:31;28.20;;;8.20;;
37781;SDS011;23621;50.878;4.584;2024-01-25T07:22:32;28.85;;;9.38;;
37781;SDS011;23621;50.878;4.584;2024-01-25T07:24:32;34.17;;;9.38;;
37781;SDS011;23621;50.878;4.584;2024-01-25T07:26:33;35.35;;;9.80;;
37781;SDS011;23621;50.878;4.584;2024-01-25T07:28:36;36.05;;;8.68;;
37781;SDS011;23621;50.878;4.584;2024-01-25T07:30:37;37.70;;;9.70;;
37781;SDS011;23621;50.878;4.584;2024-01-25T07:32:38;39.05;;;9.52;;
37781;SDS011;23621;50.878;4.584;2024-01-25T07:34:41;26.55;;;8.90;;
37781;SDS011;23621;50.878;4.584;2024-01-25T07:36:42;39.95;;;10.30;;
37781;SDS011;23621;50.878;4.584;2024-01-25T07:38:43;26.60;;;10.48;;
37781;SDS011;23621;50.878;4.584;2024-01-25T07:40:44;26.02;;;9.45;;
37781;SDS011;23621;50.878;4.584;2024-01-25T07:42:45;28.70;;;9.95;;
37781;SDS011;23621;50.878;4.584;2024-01-25T07:44:47;25.40;;;10.07;;
37781;SDS011;23621;50.878;4.584;2024-01-25T07:46:47;26.17;;;10.10;;
37781;SDS011;23621;50.878;4.584;2024-01-25T07:48:48;26.58;;;10.85;;
37781;SDS011;23621;50.878;4.584;2024-01-25T07:50:49;28.25;;;11.70;;
37781;SDS011;23621;50.878;4.584;2024-01-25T07:52:49;33.75;;;10.60;;
37781;SDS011;23621;50.878;4.584;2024-01-25T07:54:51;25.38;;;10.13;;
37781;SDS011;23621;50.878;4.584;2024-01-25T07:56:53;17.58;;;9.85;;
37781;SDS011;23621;50.878;4.584;2024-01-25T07:58:53;15.38;;;9.50;;
37781;SDS011;23621;50.878;4.584;2024-01-25T08:00:54;13.35;;;9.52;;
37781;SDS011;23621;50.878;4.584;2024-01-25T08:02:55;14.18;;;9.85;;
37781;SDS011;23621;50.878;4.584;2024-01-25T08:04:55;15.20;;;9.60;;
37781;SDS011;23621;50.878;4.584;2024-01-25T08:06:58;14.93;;;10.23;;
37781;SDS011;23621;50.878;4.584;2024-01-25T08:08:58;14.63;;;9.90;;
37781;SDS011;23621;50.878;4.584;2024-01-25T08:10:59;11.00;;;9.30;;
37781;SDS011;23621;50.878;4.584;2024-01-25T08:13:00;11.93;;;9.82;;
37781;SDS011;23621;50.878;4.584;2024-01-25T08:15:00;12.48;;;9.02;;
37781;SDS011;23621;50.878;4.584;2024-01-25T08:17:01;12.95;;;10.02;;
37781;SDS011;23621;50.878;4.584;2024-01-25T08:19:02;13.50;;;9.45;;
37781;SDS011;23621;50.878;4.584;2024-01-25T08:21:03;12.68;;;9.85;;
37781;SDS011;23621;50.878;4.584;2024-01-25T08:23:03;14.73;;;9.95;;
37781;SDS011;23621;50.878;4.584;2024-01-25T08:25:04;15.13;;;11.00;;
37781;SDS011;23621;50.878;4.584;2024-01-25T08:27:05;13.05;;;9.90;;
37781;SDS011;23621;50.878;4.584;2024-01-25T08:29:07;15.05;;;10.55;;
37781;SDS011;23621;50.878;4.584;2024-01-25T08:31:08;15.27;;;11.18;;
37781;SDS011;23621;50.878;4.584;2024-01-25T08:33:08;15.75;;;11.38;;
37781;SDS011;23621;50.878;4.584;2024-01-25T08:35:09;14.55;;;10.52;;
37781;SDS011;23621;50.878;4.584;2024-01-25T08:37:10;14.40;;;10.38;;
37781;SDS011;23621;50.878;4.584;2024-01-25T08:39:11;15.25;;;11.05;;
37781;SDS011;23621;50.878;4.584;2024-01-25T08:41:12;14.20;;;10.27;;
37781;SDS011;23621;50.878;4.584;2024-01-25T08:43:15;16.08;;;10.82;;
37781;SDS011;23621;50.878;4.584;2024-01-25T08:45:16;17.20;;;11.13;;
37781;SDS011;23621;50.878;4.584;2024-01-25T08:47:17;15.18;;;11.27;;
37781;SDS011;23621;50.878;4.584;2024-01-25T08:49:18;15.13;;;11.40;;
37781;SDS011;23621;50.878;4.584;2024-01-25T08:51:19;18.00;;;11.43;;
37781;SDS011;23621;50.878;4.584;2024-01-25T08:53:19;17.60;;;11.88;;
37781;SDS011;23621;50.878;4.584;2024-01-25T08:55:27;17.15;;;11.60;;
37781;SDS011;23621;50.878;4.584;2024-01-25T08:57:27;16.27;;;12.05;;
37781;SDS011;23621;50.878;4.584;2024-01-25T08:59:28;17.40;;;12.30;;
37781;SDS011;23621;50.878;4.584;2024-01-25T09:01:31;20.65;;;12.35;;
37781;SDS011;23621;50.878;4.584;2024-01-25T09:03:31;17.65;;;12.38;;
37781;SDS011;23621;50.878;4.584;2024-01-25T09:05:32;21.23;;;13.52;;
37781;SDS011;23621;50.878;4.584;2024-01-25T09:07:34;19.52;;;12.73;;
37781;SDS011;23621;50.878;4.584;2024-01-25T09:09:35;22.75;;;12.55;;
37781;SDS011;23621;50.878;4.584;2024-01-25T09:11:36;20.33;;;12.70;;
37781;SDS011;23621;50.878;4.584;2024-01-25T09:13:36;22.25;;;13.57;;
37781;SDS011;23621;50.878;4.584;2024-01-25T09:15:37;22.90;;;13.43;;
37781;SDS011;23621;50.878;4.584;2024-01-25T09:17:38;20.42;;;12.25;;
37781;SDS011;23621;50.878;4.584;2024-01-25T09:19:38;24.90;;;13.50;;
37781;SDS011;23621;50.878;4.584;2024-01-25T09:21:39;24.40;;;13.90;;
37781;SDS011;23621;50.878;4.584;2024-01-25T09:23:40;27.50;;;14.75;;
37781;SDS011;23621;50.878;4.584;2024-01-25T09:25:41;28.17;;;14.55;;
37781;SDS011;23621;50.878;4.584;2024-01-25T09:27:41;30.80;;;15.60;;
37781;SDS011;23621;50.878;4.584;2024-01-25T09:29:42;28.02;;;15.13;;
37781;SDS011;23621;50.878;4.584;2024-01-25T09:31:43;31.98;;;16.52;;
37781;SDS011;23621;50.878;4.584;2024-01-25T09:33:43;28.42;;;15.60;;
37781;SDS011;23621;50.878;4.584;2024-01-25T09:35:45;36.67;;;16.02;;
37781;SDS011;23621;50.878;4.584;2024-01-25T09:37:47;32.97;;;16.48;;
37781;SDS011;23621;50.878;4.584;2024-01-25T09:39:48;34.97;;;17.20;;
37781;SDS011;23621;50.878;4.584;2024-01-25T09:41:49;31.63;;;16.88;;
37781;SDS011;23621;50.878;4.584;2024-01-25T09:43:50;36.05;;;17.20;;
37781;SDS011;23621;50.878;4.584;2024-01-25T09:45:52;33.90;;;16.65;;
37781;SDS011;23621;50.878;4.584;2024-01-25T09:47:56;33.17;;;16.48;;
37781;SDS011;23621;50.878;4.584;2024-01-25T09:49:57;35.10;;;17.77;;
37781;SDS011;23621;50.878;4.584;2024-01-25T09:51:58;32.95;;;16.95;;
37781;SDS011;23621;50.878;4.584;2024-01-25T09:54:04;35.53;;;17.52;;
37781;SDS011;23621;50.878;4.584;2024-01-25T09:56:06;35.05;;;17.52;;
37781;SDS011;23621;50.878;4.584;2024-01-25T09:58:08;32.28;;;17.02;;
37781;SDS011;23621;50.878;4.584;2024-01-25T10:00:12;28.50;;;16.25;;
37781;SDS011;23621;50.878;4.584;2024-01-25T10:02:13;32.28;;;16.27;;
37781;SDS011;23621;50.878;4.584;2024-01-25T10:04:14;27.13;;;15.00;;
37781;SDS011;23621;50.878;4.584;2024-01-25T10:06:15;29.90;;;15.93;;
37781;SDS011;23621;50.878;4.584;2024-01-25T10:08:17;25.77;;;14.75;;
37781;SDS011;23621;50.878;4.584;2024-01-25T10:10:18;26.75;;;15.38;;
37781;SDS011;23621;50.878;4.584;2024-01-25T10:12:20;26.90;;;14.07;;
37781;SDS011;23621;50.878;4.584;2024-01-25T10:14:21;29.98;;;15.40;;
37781;SDS011;23621;50.878;4.584;2024-01-25T10:16:21;26.75;;;15.18;;
37781;SDS011;23621;50.878;4.584;2024-01-25T10:18:22;31.02;;;16.23;;
37781;SDS011;23621;50.878;4.584;2024-01-25T10:20:24;30.45;;;15.55;;
37781;SDS011;23621;50.878;4.584;2024-01-25T10:22:25;31.48;;;15.63;;
37781;SDS011;23621;50.878;4.584;2024-01-25T10:24:27;28.95;;;14.55;;
37781;SDS011;23621;50.878;4.584;2024-01-25T10:26:28;26.63;;;15.05;;
37781;SDS011;23621;50.878;4.584;2024-01-25T10:28:29;26.60;;;14.65;;
37781;SDS011;23621;50.878;4.584;2024-01-25T10:30:34;24.20;;;14.15;;
37781;SDS011;23621;50.878;4.584;2024-01-25T10:32:36;25.40;;;13.98;;
37781;SDS011;23621;50.878;4.584;2024-01-25T10:34:37;23.02;;;13.88;;
37781;SDS011;23621;50.878;4.584;2024-01-25T10:36:38;25.15;;;14.45;;
37781;SDS011;23621;50.878;4.584;2024-01-25T10:38:40;24.17;;;14.00;;
37781;SDS011;23621;50.878;4.584;2024-01-25T10:40:46;24.42;;;14.15;;
37781;SDS011;23621;50.878;4.584;2024-01-25T10:42:47;27.33;;;12.65;;
37781;SDS011;23621;50.878;4.584;2024-01-25T10:44:48;26.85;;;14.45;;
37781;SDS011;23621;50.878;4.584;2024-01-25T10:46:48;24.38;;;14.35;;
37781;SDS011;23621;50.878;4.584;2024-01-25T10:48:49;27.23;;;14.30;;
37781;SDS011;23621;50.878;4.584;2024-01-25T10:50:54;26.27;;;13.85;;
37781;SDS011;23621;50.878;4.584;2024-01-25T10:52:55;27.25;;;14.27;;
37781;SDS011;23621;50.878;4.584;2024-01-25T10:54:57;25.77;;;13.90;;
37781;SDS011;23621;50.878;4.584;2024-01-25T10:56:58;27.00;;;14.30;;
37781;SDS011;23621;50.878;4.584;2024-01-25T10:58:59;29.55;;;14.90;;
37781;SDS011;23621;50.878;4.584;2024-01-25T11:01:00;37.70;;;14.65;;
37781;SDS011;23621;50.878;4.584;2024-01-25T11:03:01;32.55;;;15.32;;
37781;SDS011;23621;50.878;4.584;2024-01-25T11:05:05;31.02;;;14.50;;
37781;SDS011;23621;50.878;4.584;2024-01-25T11:07:08;30.40;;;14.13;;
37781;SDS011;23621;50.878;4.584;2024-01-25T11:09:09;26.55;;;13.98;;
37781;SDS011;23621;50.878;4.584;2024-01-25T11:11:19;30.70;;;14.68;;
37781;SDS011;23621;50.878;4.584;2024-01-25T11:13:25;29.85;;;14.80;;
37781;SDS011;23621;50.878;4.584;2024-01-25T11:15:30;27.40;;;14.27;;
37781;SDS011;23621;50.878;4.584;2024-01-25T11:17:32;31.27;;;14.10;;
37781;SDS011;23621;50.878;4.584;2024-01-25T11:19:33;31.73;;;15.25;;
37781;SDS011;23621;50.878;4.584;2024-01-25T11:21:41;28.75;;;14.32;;
37781;SDS011;23621;50.878;4.584;2024-01-25T11:23:43;34.17;;;13.73;;
37781;SDS011;23621;50.878;4.584;2024-01-25T11:25:44;36.00;;;13.82;;
37781;SDS011;23621;50.878;4.584;2024-01-25T11:27:49;30.27;;;13.23;;
37781;SDS011;23621;50.878;4.584;2024-01-25T11:29:51;28.15;;;13.65;;
37781;SDS011;23621;50.878;4.584;2024-01-25T11:31:51;34.30;;;15.05;;
37781;SDS011;23621;50.878;4.584;2024-01-25T11:33:56;31.80;;;14.50;;
37781;SDS011;23621;50.878;4.584;2024-01-25T11:36:00;28.83;;;14.32;;
37781;SDS011;23621;50.878;4.584;2024-01-25T11:38:01;31.88;;;14.70;;
37781;SDS011;23621;50.878;4.584;2024-01-25T11:40:02;32.05;;;13.52;;
37781;SDS011;23621;50.878;4.584;2024-01-25T11:42:03;31.33;;;13.80;;
37781;SDS011;23621;50.878;4.584;2024-01-25T11:44:04;33.63;;;13.93;;
37781;SDS011;23621;50.878;4.584;2024-01-25T11:46:05;28.38;;;13.10;;
37781;SDS011;23621;50.878;4.584;2024-01-25T11:48:05;25.73;;;13.23;;
37781;SDS011;23621;50.878;4.584;2024-01-25T11:50:07;27.27;;;12.77;;
37781;SDS011;23621;50.878;4.584;2024-01-25T11:52:10;25.65;;;12.27;;
37781;SDS011;23621;50.878;4.584;2024-01-25T11:54:11;25.35;;;11.25;;
37781;SDS011;23621;50.878;4.584;2024-01-25T11:56:14;30.52;;;11.70;;